Time;durP1;ratioP1;P1;durP2;ratioP2;P2;SDS_P1;SDS_P2;PMS_P1;PMS_P2;Temp;Humidity;BMP_temperature;BMP_pressure;BME280_temperature;BME280_humidity;BME280_pressure;Samples;Min_cycle;Max_cycle;Signal;HPM_P1;HPM_P2
2022/05/08 00:03:57;;;;;;;13.48;3.45;;;;;;;;;;10367872;28;20038;-59
2022/05/08 00:08:58;;;;;;;15.52;4.32;;;;;;;;;;10367053;28;20448;-59
2022/05/08 00:13:58;;;;;;;7.38;3.33;;;;;;;;;;10367703;28;20029;-59
2022/05/08 00:18:59;;;;;;;8.52;3.20;;;;;;;;;;10367269;28;20144;-59
2022/05/08 00:23:59;;;;;;;6.70;3.22;;;;;;;;;;10367481;28;20037;-58
2022/05/08 00:29:00;;;;;;;9.68;3.05;;;;;;;;;;10367273;28;20038;-58
2022/05/08 00:34:02;;;;;;;9.77;3.63;;;;;;;;;;10368015;28;20038;-58
2022/05/08 00:39:03;;;;;;;7.00;2.75;;;;;;;;;;10367117;28;20030;-59
2022/05/08 00:44:03;;;;;;;7.60;3.60;;;;;;;;;;10367087;28;20030;-59
2022/05/08 00:49:04;;;;;;;4.32;3.20;;;;;;;;;;10365954;28;20497;-59
2022/05/08 00:54:05;;;;;;;5.88;3.30;;;;;;;;;;10366981;28;20033;-58
2022/05/08 00:59:06;;;;;;;5.45;3.08;;;;;;;;;;10366747;28;20088;-59
2022/05/08 01:04:06;;;;;;;6.15;2.88;;;;;;;;;;10366917;28;20113;-59
2022/05/08 01:09:07;;;;;;;6.65;2.80;;;;;;;;;;10368890;28;20030;-59
2022/05/08 01:14:07;;;;;;;4.80;2.50;;;;;;;;;;10374474;28;20033;-58
2022/05/08 01:19:08;;;;;;;4.03;2.70;;;;;;;;;;10373638;28;20046;-58
2022/05/08 01:24:14;;;;;;;6.25;2.65;;;;;;;;;;10366734;28;20026;-58
2022/05/08 01:29:15;;;;;;;5.63;2.70;;;;;;;;;;10373528;28;20040;-58
2022/05/08 01:34:15;;;;;;;5.15;3.05;;;;;;;;;;10373414;28;20033;-59
2022/05/08 01:39:16;;;;;;;4.22;2.38;;;;;;;;;;10372866;28;20038;-58
2022/05/08 01:44:16;;;;;;;2.85;2.50;;;;;;;;;;10373208;28;20032;-58
2022/05/08 01:49:17;;;;;;;8.68;2.65;;;;;;;;;;10372909;28;20030;-58
2022/05/08 01:54:17;;;;;;;4.03;2.53;;;;;;;;;;10372842;28;20041;-59
2022/05/08 01:59:18;;;;;;;4.20;2.50;;;;;;;;;;10372264;28;20033;-59
2022/05/08 02:04:19;;;;;;;4.63;2.45;;;;;;;;;;10372126;28;20030;-54
2022/05/08 02:09:20;;;;;;;4.35;2.35;;;;;;;;;;10372338;28;20026;-53
2022/05/08 02:14:20;;;;;;;3.58;2.28;;;;;;;;;;10370757;28;20490;-55
2022/05/08 02:19:22;;;;;;;3.10;2.25;;;;;;;;;;10371396;28;20507;-54
2022/05/08 02:24:22;;;;;;;4.80;2.60;;;;;;;;;;10371384;28;20037;-59
2022/05/08 02:29:23;;;;;;;5.50;2.40;;;;;;;;;;10371583;28;20078;-55
2022/05/08 02:34:24;;;;;;;2.97;2.50;;;;;;;;;;10366831;28;20038;-52
2022/05/08 02:39:24;;;;;;;3.78;2.03;;;;;;;;;;10330785;28;20026;-52
2022/05/08 02:44:25;;;;;;;4.07;2.70;;;;;;;;;;10355611;28;20034;-51
2022/05/08 02:49:26;;;;;;;3.28;2.30;;;;;;;;;;10370757;28;20022;-56
2022/05/08 02:54:26;;;;;;;6.13;2.63;;;;;;;;;;10370254;28;20433;-53
2022/05/08 02:59:27;;;;;;;3.33;2.42;;;;;;;;;;10370290;28;20022;-52
2022/05/08 03:04:27;;;;;;;4.00;3.03;;;;;;;;;;10369715;28;20048;-53
2022/05/08 03:09:29;;;;;;;3.22;2.00;;;;;;;;;;10369999;28;20032;-53
2022/05/08 03:14:30;;;;;;;4.03;2.30;;;;;;;;;;10369205;28;20034;-53
2022/05/08 03:19:31;;;;;;;3.95;2.65;;;;;;;;;;10369094;28;20422;-53
2022/05/08 03:24:32;;;;;;;3.65;2.30;;;;;;;;;;10368810;28;20041;-53
2022/05/08 03:29:32;;;;;;;2.55;2.05;;;;;;;;;;10369331;28;20385;-53
2022/05/08 03:34:33;;;;;;;2.28;1.92;;;;;;;;;;10367873;28;20033;-53
2022/05/08 03:39:34;;;;;;;6.70;2.20;;;;;;;;;;10368791;28;20030;-53
2022/05/08 03:44:35;;;;;;;3.30;2.25;;;;;;;;;;10368462;28;20034;-54
2022/05/08 03:49:36;;;;;;;2.42;2.10;;;;;;;;;;10368601;28;20029;-50
2022/05/08 03:54:36;;;;;;;4.90;2.00;;;;;;;;;;10368155;28;20030;-53
2022/05/08 03:59:37;;;;;;;3.10;2.40;;;;;;;;;;10368282;28;20022;-52
2022/05/08 04:04:37;;;;;;;4.57;2.50;;;;;;;;;;10367943;28;20022;-54
2022/05/08 04:09:38;;;;;;;2.38;1.90;;;;;;;;;;10368121;28;20022;-51
2022/05/08 04:14:39;;;;;;;2.45;2.22;;;;;;;;;;10367602;28;20025;-52
2022/05/08 04:19:39;;;;;;;3.20;1.90;;;;;;;;;;10367651;28;20050;-50
2022/05/08 04:24:43;;;;;;;2.15;1.75;;;;;;;;;;10367449;28;20041;-53
2022/05/08 04:29:43;;;;;;;1.88;1.70;;;;;;;;;;10367586;28;20030;-54
2022/05/08 04:34:44;;;;;;;2.40;2.13;;;;;;;;;;10366648;28;20041;-59
2022/05/08 04:39:45;;;;;;;1.80;1.70;;;;;;;;;;10366447;28;20045;-59
2022/05/08 04:44:45;;;;;;;3.92;2.20;;;;;;;;;;10372256;28;20474;-60
2022/05/08 04:49:46;;;;;;;3.35;2.50;;;;;;;;;;10370537;28;20592;-60
2022/05/08 04:54:46;;;;;;;3.47;1.83;;;;;;;;;;10352643;28;20532;-59
2022/05/08 04:59:47;;;;;;;3.25;1.95;;;;;;;;;;10344738;28;20030;-59
2022/05/08 05:04:47;;;;;;;2.05;1.88;;;;;;;;;;10346559;28;20088;-59
2022/05/08 05:09:48;;;;;;;6.05;2.38;;;;;;;;;;10358127;28;20045;-59
2022/05/08 05:14:49;;;;;;;2.10;1.90;;;;;;;;;;10338590;28;20042;-59
2022/05/08 05:19:49;;;;;;;3.33;2.10;;;;;;;;;;10337069;28;20490;-60
2022/05/08 05:24:50;;;;;;;3.83;2.10;;;;;;;;;;10331963;28;20069;-59
2022/05/08 05:29:51;;;;;;;2.55;1.95;;;;;;;;;;10336993;28;20034;-59
2022/05/08 05:34:52;;;;;;;2.60;2.10;;;;;;;;;;10331906;28;20048;-59
2022/05/08 05:39:52;;;;;;;4.05;2.08;;;;;;;;;;10340661;28;20033;-59
2022/05/08 05:44:54;;;;;;;2.40;2.20;;;;;;;;;;10332429;28;20026;-59
2022/05/08 05:49:55;;;;;;;1.98;1.80;;;;;;;;;;10343832;28;20413;-59
2022/05/08 05:54:55;;;;;;;5.88;1.98;;;;;;;;;;10371964;28;20025;-59
2022/05/08 05:59:56;;;;;;;3.05;2.03;;;;;;;;;;10372345;28;20026;-59
2022/05/08 06:04:57;;;;;;;2.75;1.70;;;;;;;;;;10371843;28;20030;-58
2022/05/08 06:09:57;;;;;;;3.10;2.47;;;;;;;;;;10372713;28;20034;-59
2022/05/08 06:14:58;;;;;;;2.15;1.90;;;;;;;;;;10371336;28;20477;-59
2022/05/08 06:19:58;;;;;;;2.65;1.88;;;;;;;;;;10371802;28;20723;-59
2022/05/08 06:24:59;;;;;;;2.55;1.77;;;;;;;;;;10370323;28;20026;-59
2022/05/08 06:30:00;;;;;;;2.08;1.85;;;;;;;;;;10371346;28;20052;-59
2022/05/08 06:35:01;;;;;;;4.78;2.20;;;;;;;;;;10371377;28;20541;-59
2022/05/08 06:40:02;;;;;;;1.92;1.80;;;;;;;;;;10371182;28;20077;-59
2022/05/08 06:45:02;;;;;;;1.92;1.83;;;;;;;;;;10370490;28;20026;-59
2022/05/08 06:50:03;;;;;;;2.63;2.00;;;;;;;;;;10370855;28;20022;-59
2022/05/08 06:55:05;;;;;;;2.40;2.10;;;;;;;;;;10370219;28;20036;-59
2022/05/08 07:05:26;;;;;;;1.70;1.60;;;;;;;;;;10366150;28;20034;-58
2022/05/08 07:10:26;;;;;;;2.08;1.90;;;;;;;;;;10369396;28;20034;-59
2022/05/08 07:15:27;;;;;;;1.98;1.88;;;;;;;;;;10369138;28;20026;-59
2022/05/08 07:20:28;;;;;;;2.00;1.80;;;;;;;;;;10369574;28;20068;-58
2022/05/08 07:25:28;;;;;;;1.98;1.80;;;;;;;;;;10369092;28;20026;-58
2022/05/08 07:30:29;;;;;;;3.97;2.10;;;;;;;;;;10369001;28;20022;-58
2022/05/08 07:40:50;;;;;;;2.20;2.00;;;;;;;;;;10367903;28;20034;-57
2022/05/08 07:45:52;;;;;;;3.92;2.17;;;;;;;;;;10367356;28;20018;-58
2022/05/08 07:50:52;;;;;;;2.30;2.10;;;;;;;;;;10343886;28;20030;-58
2022/05/08 07:55:53;;;;;;;2.72;2.00;;;;;;;;;;10330604;28;20022;-58
2022/05/08 08:00:57;;;;;;;2.10;1.88;;;;;;;;;;10366846;28;20117;-58
2022/05/08 08:05:58;;;;;;;3.92;2.10;;;;;;;;;;10393499;28;20033;-58
2022/05/08 08:11:03;;;;;;;2.70;2.20;;;;;;;;;;10375093;28;20092;-58
2022/05/08 08:16:05;;;;;;;6.20;1.88;;;;;;;;;;10367293;28;20052;-58
2022/05/08 08:21:05;;;;;;;2.10;1.90;;;;;;;;;;10384101;28;20048;-58
2022/05/08 08:26:07;;;;;;;3.47;2.00;;;;;;;;;;10375170;28;20048;-58
2022/05/08 08:31:11;;;;;;;1.70;1.58;;;;;;;;;;10367582;28;20494;-58
2022/05/08 08:36:12;;;;;;;2.58;1.83;;;;;;;;;;10366874;28;20029;-58
2022/05/08 08:41:14;;;;;;;2.05;1.85;;;;;;;;;;10367266;28;20104;-58
2022/05/08 08:51:36;;;;;;;2.67;2.08;;;;;;;;;;10353380;28;20045;-57
2022/05/08 08:56:37;;;;;;;8.23;2.03;;;;;;;;;;10365483;28;20486;-57
2022/05/08 09:01:44;;;;;;;6.63;2.97;;;;;;;;;;10364741;28;20029;-57
2022/05/08 09:06:46;;;;;;;6.43;2.47;;;;;;;;;;10364350;28;20132;-56
2022/05/08 09:11:46;;;;;;;5.82;2.20;;;;;;;;;;10365940;28;20029;-59
2022/05/08 09:16:53;;;;;;;7.10;2.55;;;;;;;;;;10366091;28;20406;-59
2022/05/08 09:21:58;;;;;;;4.80;2.90;;;;;;;;;;10364606;28;20073;-58
2022/05/08 09:27:13;;;;;;;3.72;2.72;;;;;;;;;;10373680;28;20041;-57
2022/05/08 09:32:46;;;;;;;5.43;2.85;;;;;;;;;;10371938;28;20030;-58
2022/05/08 09:37:53;;;;;;;4.15;2.50;;;;;;;;;;10338336;28;20069;-57
2022/05/08 09:42:54;;;;;;;5.10;2.72;;;;;;;;;;10369253;28;20044;-51
2022/05/08 09:47:57;;;;;;;3.00;2.40;;;;;;;;;;10368323;28;20041;-51
2022/05/08 09:52:58;;;;;;;3.50;2.40;;;;;;;;;;10371193;28;20037;-51
2022/05/08 09:58:00;;;;;;;3.35;2.50;;;;;;;;;;10388718;28;20037;-58
2022/05/08 10:03:02;;;;;;;2.92;2.50;;;;;;;;;;10368774;28;20041;-49
2022/05/08 10:08:05;;;;;;;12.30;2.78;;;;;;;;;;10370338;28;20030;-50
2022/05/08 10:18:28;;;;;;;27.40;3.10;;;;;;;;;;10344952;28;20046;-50
2022/05/08 10:23:37;;;;;;;8.82;3.17;;;;;;;;;;10370401;28;20040;-48
2022/05/08 10:29:12;;;;;;;6.63;2.70;;;;;;;;;;10371406;28;20029;-49
2022/05/08 10:34:15;;;;;;;4.10;2.83;;;;;;;;;;10371266;28;20030;-50
2022/05/08 10:39:42;;;;;;;6.03;2.95;;;;;;;;;;10370230;28;20045;-54
2022/05/08 10:44:43;;;;;;;9.38;2.90;;;;;;;;;;10370254;28;20038;-53
2022/05/08 10:49:45;;;;;;;3.72;2.70;;;;;;;;;;10370882;28;20053;-53
2022/05/08 10:54:59;;;;;;;4.18;2.95;;;;;;;;;;10370233;28;20615;-55
2022/05/08 11:00:00;;;;;;;2.83;2.55;;;;;;;;;;10370518;28;20030;-54
2022/05/08 11:05:01;;;;;;;4.70;3.13;;;;;;;;;;10369110;28;20026;-57
2022/05/08 11:10:02;;;;;;;6.10;2.95;;;;;;;;;;10370214;28;20037;-56
2022/05/08 11:15:09;;;;;;;3.40;2.85;;;;;;;;;;10369417;28;20030;-54
2022/05/08 11:20:10;;;;;;;6.22;3.10;;;;;;;;;;10369711;28;20045;-55
2022/05/08 11:25:12;;;;;;;5.35;2.92;;;;;;;;;;10369375;28;20516;-57
2022/05/08 11:30:13;;;;;;;4.47;2.70;;;;;;;;;;10369327;28;20080;-58
2022/05/08 11:40:33;;;;;;;2.63;2.40;;;;;;;;;;10369039;28;20034;-59
2022/05/08 11:45:33;;;;;;;4.20;3.03;;;;;;;;;;10368678;28;20026;-53
2022/05/08 11:50:34;;;;;;;5.40;2.90;;;;;;;;;;10368519;28;20022;-54
2022/05/08 11:55:43;;;;;;;4.28;3.00;;;;;;;;;;10368013;28;20117;-52
2022/05/08 12:00:43;;;;;;;5.13;3.22;;;;;;;;;;10368011;28;20030;-54
2022/05/08 12:05:46;;;;;;;3.65;3.13;;;;;;;;;;10368995;28;20385;-54
2022/05/08 12:10:46;;;;;;;3.55;2.85;;;;;;;;;;10366736;28;20096;-55
2022/05/08 12:15:47;;;;;;;4.53;2.88;;;;;;;;;;10367605;28;20102;-57
2022/05/08 12:20:48;;;;;;;3.45;2.63;;;;;;;;;;10367650;28;20025;-57
2022/05/08 12:25:50;;;;;;;3.17;2.88;;;;;;;;;;10366167;28;20678;-57
2022/05/08 12:30:51;;;;;;;6.90;3.35;;;;;;;;;;10367495;28;20030;-54
2022/05/08 12:35:52;;;;;;;3.15;2.50;;;;;;;;;;10367292;28;20038;-54
2022/05/08 12:40:52;;;;;;;3.67;2.67;;;;;;;;;;10367386;28;20040;-57
2022/05/08 12:45:53;;;;;;;2.55;2.35;;;;;;;;;;10366632;28;20045;-53
2022/05/08 12:50:53;;;;;;;6.80;3.00;;;;;;;;;;10366098;28;20038;-54
2022/05/08 12:55:54;;;;;;;3.60;2.88;;;;;;;;;;10367028;28;20045;-55
2022/05/08 13:00:55;;;;;;;2.72;2.53;;;;;;;;;;10365877;28;20034;-54
2022/05/08 13:05:55;;;;;;;2.72;2.53;;;;;;;;;;10370366;28;20030;-54
2022/05/08 13:10:56;;;;;;;2.63;2.42;;;;;;;;;;10374850;28;20080;-52
2022/05/08 13:15:58;;;;;;;4.18;2.78;;;;;;;;;;10373979;28;20486;-52
2022/05/08 13:20:59;;;;;;;2.55;2.35;;;;;;;;;;10374533;28;20041;-57
2022/05/08 13:25:59;;;;;;;2.80;2.60;;;;;;;;;;10373858;28;20367;-58
2022/05/08 13:31:04;;;;;;;2.70;2.50;;;;;;;;;;10373612;28;20061;-55
2022/05/08 13:36:05;;;;;;;3.25;2.90;;;;;;;;;;10373907;28;20029;-57
2022/05/08 13:41:05;;;;;;;3.25;2.80;;;;;;;;;;10373206;28;20496;-56
2022/05/08 13:46:06;;;;;;;2.72;2.53;;;;;;;;;;10373068;28;20042;-54
2022/05/08 13:51:07;;;;;;;3.35;2.55;;;;;;;;;;10373373;28;20038;-55
2022/05/08 13:56:08;;;;;;;4.30;2.63;;;;;;;;;;10372698;28;20497;-57
2022/05/08 14:01:09;;;;;;;3.25;2.70;;;;;;;;;;10372836;28;20091;-58
2022/05/08 14:06:11;;;;;;;2.65;2.45;;;;;;;;;;10370357;28;20033;-55
2022/05/08 14:11:12;;;;;;;2.97;2.63;;;;;;;;;;10372712;28;20033;-57
2022/05/08 14:16:12;;;;;;;3.00;2.58;;;;;;;;;;10371138;28;20056;-58
2022/05/08 14:21:13;;;;;;;2.80;2.60;;;;;;;;;;10371783;28;20191;-57
2022/05/08 14:26:14;;;;;;;2.80;2.60;;;;;;;;;;10371850;28;20038;-58
2022/05/08 14:36:33;;;;;;;3.08;2.78;;;;;;;;;;10367223;28;20026;-59
2022/05/08 14:41:34;;;;;;;2.90;2.63;;;;;;;;;;10351526;28;20038;-57
2022/05/08 14:46:35;;;;;;;3.05;2.65;;;;;;;;;;10370785;28;20042;-55
2022/05/08 14:51:36;;;;;;;5.72;2.60;;;;;;;;;;10370500;28;20605;-58
2022/05/08 14:56:36;;;;;;;4.68;2.83;;;;;;;;;;10368601;28;20099;-50
2022/05/08 15:01:37;;;;;;;3.05;2.75;;;;;;;;;;10371339;28;20045;-58
2022/05/08 15:06:37;;;;;;;2.55;2.35;;;;;;;;;;10347806;28;20033;-57
2022/05/08 15:11:38;;;;;;;2.50;2.30;;;;;;;;;;10356949;28;20026;-53
2022/05/08 15:16:40;;;;;;;2.88;2.35;;;;;;;;;;10371715;28;20046;-58
2022/05/08 15:21:41;;;;;;;3.13;2.83;;;;;;;;;;10379646;28;20033;-57
2022/05/08 15:26:41;;;;;;;3.33;2.50;;;;;;;;;;10378040;28;20120;-54
2022/05/08 15:31:42;;;;;;;3.85;2.83;;;;;;;;;;10356003;28;20037;-56
2022/05/08 15:36:43;;;;;;;3.35;2.78;;;;;;;;;;10339021;28;20026;-59
2022/05/08 15:41:44;;;;;;;2.65;2.45;;;;;;;;;;10336106;28;20042;-57
2022/05/08 15:46:46;;;;;;;3.22;2.47;;;;;;;;;;10353204;28;20050;-57
2022/05/08 15:51:47;;;;;;;5.68;3.10;;;;;;;;;;10344060;28;20389;-55
2022/05/08 15:56:47;;;;;;;6.63;2.42;;;;;;;;;;10333412;28;20441;-56
2022/05/08 16:01:49;;;;;;;5.18;2.47;;;;;;;;;;10350677;28;20036;-56
2022/05/08 16:06:49;;;;;;;6.43;2.88;;;;;;;;;;10359398;28;20025;-55
2022/05/08 16:11:50;;;;;;;3.25;2.78;;;;;;;;;;10385773;28;20037;-57
2022/05/08 16:27:29;;;;;;;8.77;2.95;;;;;;;;;;10382029;28;20061;-53
2022/05/08 16:32:30;;;;;;;7.78;2.67;;;;;;;;;;10366704;28;20474;-56
2022/05/08 16:37:30;;;;;;;3.88;3.05;;;;;;;;;;10330820;28;20520;-57
2022/05/08 16:42:32;;;;;;;3.35;2.80;;;;;;;;;;10402957;28;20030;-48
2022/05/08 16:47:33;;;;;;;5.82;2.60;;;;;;;;;;10374871;28;20030;-49
2022/05/08 16:52:33;;;;;;;4.35;2.72;;;;;;;;;;10375593;28;20037;-49
2022/05/08 16:57:34;;;;;;;27.70;3.72;;;;;;;;;;10358614;28;20084;-49
2022/05/08 17:02:36;;;;;;;18.52;3.85;;;;;;;;;;10374886;28;20030;-48
2022/05/08 17:07:37;;;;;;;4.43;3.28;;;;;;;;;;10374515;28;20037;-48
2022/05/08 17:12:41;;;;;;;3.90;3.50;;;;;;;;;;10353501;28;20034;-49
2022/05/08 17:17:41;;;;;;;8.90;3.75;;;;;;;;;;10345125;28;20100;-48
2022/05/08 17:22:42;;;;;;;11.30;3.75;;;;;;;;;;10372614;28;20038;-50
2022/05/08 17:33:02;;;;;;;5.57;3.67;;;;;;;;;;10372528;28;20022;-53
2022/05/08 17:38:03;;;;;;;6.65;4.43;;;;;;;;;;10375283;28;20029;-54
2022/05/08 17:43:04;;;;;;;7.43;4.00;;;;;;;;;;10373260;28;20482;-54
2022/05/08 17:48:07;;;;;;;12.30;4.47;;;;;;;;;;10373021;28;20583;-56
2022/05/08 17:53:08;;;;;;;5.53;4.35;;;;;;;;;;10371896;28;20068;-53
2022/05/08 17:58:09;;;;;;;4.90;4.30;;;;;;;;;;10370586;28;20084;-58
2022/05/08 18:08:29;;;;;;;12.73;4.07;;;;;;;;;;10370862;28;21140;-56
2022/05/08 18:13:30;;;;;;;7.45;3.97;;;;;;;;;;10369101;28;20022;-49
2022/05/08 18:18:31;;;;;;;7.78;4.35;;;;;;;;;;10331880;28;20536;-57
2022/05/08 18:23:32;;;;;;;6.72;4.13;;;;;;;;;;10332242;28;20508;-55
2022/05/08 18:28:34;;;;;;;7.22;4.00;;;;;;;;;;10336443;28;20018;-57
2022/05/08 18:33:34;;;;;;;7.57;4.63;;;;;;;;;;10333346;28;20074;-52
2022/05/08 18:38:35;;;;;;;4.65;3.70;;;;;;;;;;10332112;28;20402;-52
2022/05/08 18:43:37;;;;;;;9.35;4.68;;;;;;;;;;10342397;28;20084;-51
2022/05/08 18:48:38;;;;;;;8.48;4.32;;;;;;;;;;10359243;28;20409;-52
2022/05/08 18:53:38;;;;;;;6.22;4.60;;;;;;;;;;10370914;28;20037;-56
2022/05/08 18:58:39;;;;;;;6.95;4.47;;;;;;;;;;10363546;28;20026;-55
2022/05/08 19:03:39;;;;;;;6.82;4.07;;;;;;;;;;10370013;28;20448;-57
2022/05/08 19:08:40;;;;;;;4.97;4.28;;;;;;;;;;10366823;28;20394;-54
2022/05/08 19:13:41;;;;;;;11.15;4.18;;;;;;;;;;10368608;28;20022;-57
2022/05/08 19:18:42;;;;;;;8.75;4.32;;;;;;;;;;10359324;28;20375;-58
2022/05/08 19:23:44;;;;;;;25.23;5.57;;;;;;;;;;10344363;28;20030;-55
2022/05/08 19:28:45;;;;;;;6.63;4.18;;;;;;;;;;10349889;28;20045;-54
2022/05/08 19:39:04;;;;;;;8.23;4.50;;;;;;;;;;10344933;28;20062;-54
2022/05/08 19:44:05;;;;;;;6.70;4.30;;;;;;;;;;10368836;28;20034;-54
2022/05/08 19:49:06;;;;;;;8.38;4.95;;;;;;;;;;10368233;28;20025;-59
2022/05/08 19:54:06;;;;;;;9.43;4.90;;;;;;;;;;10368681;28;20037;-58
2022/05/08 19:59:07;;;;;;;9.65;4.78;;;;;;;;;;10368262;28;20037;-60
2022/05/08 20:04:07;;;;;;;5.57;4.43;;;;;;;;;;10368239;28;20675;-59
2022/05/08 20:09:08;;;;;;;7.93;4.28;;;;;;;;;;10367960;28;20478;-61
2022/05/08 20:14:09;;;;;;;10.27;5.22;;;;;;;;;;10367674;28;20030;-59
2022/05/08 20:19:10;;;;;;;10.15;4.82;;;;;;;;;;10367501;28;20042;-60
2022/05/08 20:24:10;;;;;;;9.48;5.53;;;;;;;;;;10367962;28;20045;-55
2022/05/08 20:29:11;;;;;;;8.13;6.07;;;;;;;;;;10367417;28;20038;-53
2022/05/08 20:34:11;;;;;;;10.43;6.00;;;;;;;;;;10367444;28;20050;-55
2022/05/08 20:39:13;;;;;;;10.38;7.50;;;;;;;;;;10363545;28;20026;-62
2022/05/08 20:44:14;;;;;;;9.20;6.72;;;;;;;;;;10326112;28;20105;-54
2022/05/08 20:49:19;;;;;;;11.57;5.80;;;;;;;;;;10345757;28;20046;-57
2022/05/08 20:54:20;;;;;;;11.55;6.57;;;;;;;;;;10364201;28;20618;-57
2022/05/08 20:59:21;;;;;;;6.60;5.65;;;;;;;;;;10328323;28;20027;-57
2022/05/08 21:04:24;;;;;;;10.90;5.75;;;;;;;;;;10327443;28;20026;-56
2022/05/08 21:09:25;;;;;;;12.20;5.80;;;;;;;;;;10328393;28;20112;-55
2022/05/08 21:14:25;;;;;;;9.05;6.07;;;;;;;;;;10325018;28;20486;-61
2022/05/08 21:19:26;;;;;;;9.85;5.78;;;;;;;;;;10328018;28;20118;-58
2022/05/08 21:24:27;;;;;;;7.63;5.55;;;;;;;;;;10324487;28;20117;-59
2022/05/08 21:29:27;;;;;;;7.20;5.35;;;;;;;;;;10332008;28;20025;-58
2022/05/08 21:34:28;;;;;;;8.80;5.38;;;;;;;;;;10334307;28;20030;-59
2022/05/08 21:39:28;;;;;;;10.27;5.80;;;;;;;;;;10331820;28;20018;-59
2022/05/08 21:44:29;;;;;;;8.02;5.20;;;;;;;;;;10333686;28;20037;-60
2022/05/08 21:49:29;;;;;;;19.20;6.25;;;;;;;;;;10334943;28;20030;-60
2022/05/08 21:54:30;;;;;;;10.43;5.65;;;;;;;;;;10334414;28;20037;-59
2022/05/08 21:59:31;;;;;;;8.80;5.93;;;;;;;;;;10353191;28;20095;-59
2022/05/08 22:04:33;;;;;;;8.40;5.53;;;;;;;;;;10372529;28;20041;-59
2022/05/08 22:09:35;;;;;;;9.60;5.38;;;;;;;;;;10372133;28;20025;-60
2022/05/08 22:14:36;;;;;;;13.65;5.40;;;;;;;;;;10372419;28;20029;-59
2022/05/08 22:19:37;;;;;;;10.80;5.72;;;;;;;;;;10371334;28;20038;-59
2022/05/08 22:24:37;;;;;;;7.72;5.35;;;;;;;;;;10367010;28;20033;-59
2022/05/08 22:29:38;;;;;;;9.52;5.30;;;;;;;;;;10371128;28;20484;-59
2022/05/08 22:34:39;;;;;;;8.35;5.28;;;;;;;;;;10371462;28;20029;-59
2022/05/08 22:39:40;;;;;;;9.23;5.40;;;;;;;;;;10369735;28;20026;-59
2022/05/08 22:44:40;;;;;;;7.70;5.63;;;;;;;;;;10370920;28;20410;-59
2022/05/08 22:49:41;;;;;;;10.38;5.00;;;;;;;;;;10371068;28;20033;-59
2022/05/08 22:54:41;;;;;;;8.20;5.47;;;;;;;;;;10369590;28;20030;-58
2022/05/08 22:59:42;;;;;;;11.52;5.68;;;;;;;;;;10370686;28;20037;-59
2022/05/08 23:04:43;;;;;;;9.63;4.85;;;;;;;;;;10370034;28;20050;-59
2022/05/08 23:09:43;;;;;;;10.25;5.00;;;;;;;;;;10369299;28;20029;-58
2022/05/08 23:20:12;;;;;;;8.02;5.20;;;;;;;;;;10366271;28;20058;-58
2022/05/08 23:25:18;;;;;;;6.78;4.72;;;;;;;;;;10365597;28;20018;-60
2022/05/08 23:30:22;;;;;;;5.75;4.50;;;;;;;;;;10369312;28;20028;-60
2022/05/08 23:35:24;;;;;;;7.75;4.65;;;;;;;;;;10368652;28;20105;-61
2022/05/08 23:40:28;;;;;;;8.85;4.45;;;;;;;;;;10398630;28;20462;-60
2022/05/08 23:45:29;;;;;;;9.75;4.60;;;;;;;;;;10400869;28;20037;-60
2022/05/08 23:50:30;;;;;;;10.68;4.78;;;;;;;;;;10367948;28;20032;-60
2022/05/08 23:55:31;;;;;;;8.55;5.22;;;;;;;;;;10367082;28;20026;-60
